createdAt,value
2019-05-01T00:01:38.295Z,8.66
2019-05-01T00:04:18.139Z,8.89
2019-05-01T00:06:49.121Z,8.71
2019-05-01T00:09:17.620Z,8.77
2019-05-01T00:11:45.861Z,8.77
2019-05-01T00:14:14.039Z,8.71
2019-05-01T00:16:42.697Z,8.72
2019-05-01T00:19:10.945Z,8.68
2019-05-01T00:21:39.229Z,8.08
2019-05-01T00:24:07.469Z,8.33
2019-05-01T00:26:35.806Z,8.55
2019-05-01T00:29:04.285Z,8.48
2019-05-01T00:31:32.422Z,8.70
2019-05-01T00:34:00.579Z,8.31
2019-05-01T00:36:28.701Z,8.13
2019-05-01T00:38:56.831Z,8.48
2019-05-01T00:41:25.061Z,8.23
2019-05-01T00:43:53.259Z,8.60
2019-05-01T00:46:21.481Z,8.59
2019-05-01T00:48:49.669Z,8.62
2019-05-01T00:51:17.925Z,8.09
2019-05-01T00:53:46.099Z,8.44
2019-05-01T00:56:42.233Z,8.48
2019-05-01T00:59:24.905Z,8.58
2019-05-01T01:02:10.375Z,8.61
2019-05-01T01:04:39.089Z,8.65
2019-05-01T01:07:07.348Z,8.49
2019-05-01T01:09:35.573Z,8.20
2019-05-01T01:12:03.657Z,8.09
2019-05-01T01:14:31.809Z,8.23
2019-05-01T01:16:59.968Z,7.94
2019-05-01T01:19:28.099Z,8.47
2019-05-01T01:21:56.388Z,8.33
2019-05-01T01:24:24.667Z,8.59
2019-05-01T01:26:52.808Z,8.55
2019-05-01T01:29:21.235Z,8.56
2019-05-01T01:31:49.352Z,8.50
2019-05-01T01:34:17.567Z,8.37
2019-05-01T01:36:45.721Z,8.07
2019-05-01T01:39:13.926Z,8.08
2019-05-01T01:41:42.442Z,7.87
2019-05-01T01:44:17.441Z,7.79
2019-05-01T01:46:46.316Z,7.79
2019-05-01T01:49:15.501Z,7.82
2019-05-01T01:51:44.022Z,7.84
2019-05-01T01:54:12.690Z,7.87
2019-05-01T01:56:41.037Z,7.86
2019-05-01T01:59:09.344Z,7.86
2019-05-01T02:01:51.966Z,7.84
2019-05-01T02:04:51.355Z,7.79
2019-05-01T02:07:19.567Z,7.77
2019-05-01T02:09:47.696Z,8.24
2019-05-01T02:12:16.406Z,8.48
2019-05-01T02:14:44.554Z,8.78
2019-05-01T02:17:12.826Z,8.58
2019-05-01T02:19:41.052Z,8.85
2019-05-01T02:22:09.212Z,8.65
2019-05-01T02:24:37.581Z,8.69
2019-05-01T02:27:09.740Z,8.36
2019-05-01T02:29:44.900Z,8.50
2019-05-01T02:32:13.747Z,8.33
2019-05-01T02:35:02.334Z,8.15
2019-05-01T02:37:32.614Z,8.34
2019-05-01T02:40:03.667Z,8.08
2019-05-01T02:42:33.080Z,8.12
2019-05-01T02:45:04.408Z,8.09
2019-05-01T02:47:36.324Z,8.08
2019-05-01T02:50:10.487Z,8.17
2019-05-01T02:52:41.430Z,8.22
2019-05-01T02:55:39.317Z,8.07
2019-05-01T02:58:09.735Z,8.05
2019-05-01T03:00:38.501Z,8.04
2019-05-01T03:03:07.015Z,7.99
2019-05-01T03:05:35.334Z,8.00
2019-05-01T03:08:08.228Z,8.02
2019-05-01T03:10:36.498Z,8.08
2019-05-01T03:13:04.946Z,8.00
2019-05-01T03:15:35.620Z,8.02
2019-05-01T03:18:28.091Z,7.92
2019-05-01T03:21:10.859Z,7.89
2019-05-01T03:23:45.697Z,8.21
2019-05-01T03:26:13.916Z,8.21
2019-05-01T03:28:42.062Z,8.14
2019-05-01T03:31:10.279Z,8.14
2019-05-01T03:36:46.795Z,8.30
2019-05-01T03:39:16.170Z,8.19
2019-05-01T03:41:44.872Z,8.20
2019-05-01T03:44:13.072Z,8.16
2019-05-01T03:46:41.214Z,8.13
2019-05-01T03:49:09.668Z,8.16
2019-05-01T03:51:38.120Z,8.22
2019-05-01T03:54:06.691Z,8.14
2019-05-01T03:56:34.825Z,8.09
2019-05-01T03:59:03.872Z,8.05
2019-05-01T04:01:51.128Z,8.09
2019-05-01T04:04:22.118Z,8.23
2019-05-01T04:06:50.514Z,8.65
2019-05-01T04:09:18.924Z,8.44
2019-05-01T04:11:47.407Z,8.36
2019-05-01T04:14:15.751Z,8.29
2019-05-01T04:16:46.283Z,8.52
2019-05-01T04:19:14.869Z,8.30
2019-05-01T04:21:48.646Z,8.17
2019-05-01T04:24:16.818Z,8.11
2019-05-01T04:26:45.146Z,8.08
2019-05-01T04:29:32.458Z,8.05
2019-05-01T04:32:13.756Z,8.04
2019-05-01T04:34:49.079Z,8.05
2019-05-01T04:37:24.508Z,8.18
2019-05-01T04:39:52.655Z,8.41
2019-05-01T04:42:20.781Z,8.50
2019-05-01T04:44:49.049Z,8.68
2019-05-01T04:47:17.854Z,8.60
2019-05-01T04:49:46.372Z,8.70
2019-05-01T04:52:14.570Z,8.87
2019-05-01T04:54:42.858Z,8.66
2019-05-01T04:57:11.178Z,8.70
2019-05-01T04:59:59.687Z,8.67
2019-05-01T05:02:46.792Z,8.70
2019-05-01T05:05:15.443Z,8.72
2019-05-01T05:07:43.597Z,8.91
2019-05-01T05:10:11.861Z,9.06
2019-05-01T05:12:48.520Z,9.15
2019-05-01T05:15:27.275Z,9.18
2019-05-01T05:17:55.725Z,9.38
2019-05-01T05:20:24.504Z,9.27
2019-05-01T05:22:52.784Z,9.30
2019-05-01T05:25:21.001Z,9.36
2019-05-01T05:27:51.631Z,9.29
2019-05-01T05:33:30.410Z,9.18
2019-05-01T05:35:59.659Z,9.13
2019-05-01T05:38:48.797Z,9.21
2019-05-01T05:41:19.060Z,9.24
2019-05-01T05:43:47.343Z,9.44
2019-05-01T05:46:15.977Z,9.44
2019-05-01T05:48:44.382Z,9.21
2019-05-01T05:51:35.958Z,9.53
2019-05-01T05:54:11.838Z,8.92
2019-05-01T05:56:48.436Z,8.97
2019-05-01T05:59:22.113Z,9.05
2019-05-01T06:08:06.754Z,9.24
2019-05-01T06:10:58.567Z,9.31
2019-05-01T06:13:47.015Z,9.39
2019-05-01T06:16:32.134Z,9.77
2019-05-01T06:19:17.438Z,9.34
2019-05-01T06:22:10.301Z,9.37
2019-05-01T06:24:42.362Z,9.76
2019-05-01T06:27:13.729Z,10.15
2019-05-01T06:29:41.528Z,10.01
2019-05-01T06:32:09.792Z,9.64
2019-05-01T06:34:38.026Z,9.99
2019-05-01T06:37:06.187Z,10.31
2019-05-01T06:39:34.656Z,10.52
2019-05-01T06:42:04.214Z,10.17
2019-05-01T06:44:44.164Z,10.18
2019-05-01T06:47:22.594Z,10.07
2019-05-01T06:50:06.002Z,10.45
2019-05-01T06:52:36.282Z,10.35
2019-05-01T06:55:04.891Z,10.20
2019-05-01T06:57:33.397Z,10.48
2019-05-01T07:00:03.176Z,10.44
2019-05-01T07:02:34.945Z,10.82
2019-05-01T07:05:01.765Z,10.68
2019-05-01T07:07:31.760Z,10.65
2019-05-01T07:10:01.326Z,10.34
2019-05-01T07:12:51.342Z,11.55
2019-05-01T07:15:21.907Z,11.54
2019-05-01T07:17:49.406Z,11.71
2019-05-01T07:20:36.541Z,10.34
2019-05-01T07:23:05.547Z,10.05
2019-05-01T07:25:34.810Z,9.96
2019-05-01T07:28:03.812Z,10.49
2019-05-01T07:30:54.966Z,10.20
2019-05-01T07:33:20.200Z,10.77
2019-05-01T07:35:49.080Z,10.85
2019-05-01T07:38:17.466Z,12.41
2019-05-01T07:40:45.966Z,10.70
2019-05-01T07:43:30.621Z,11.89
2019-05-01T07:46:08.359Z,12.66
2019-05-01T07:48:41.721Z,11.31
2019-05-01T07:51:09.473Z,11.34
2019-05-01T07:53:38.808Z,11.14
2019-05-01T07:56:08.129Z,10.61
2019-05-01T07:58:36.691Z,11.34
2019-05-01T08:01:32.948Z,11.64
2019-05-01T08:04:01.161Z,12.94
2019-05-01T08:06:29.502Z,13.60
2019-05-01T08:08:57.762Z,12.56
2019-05-01T08:11:26.107Z,13.33
2019-05-01T08:14:01.503Z,14.13
2019-05-01T08:16:24.317Z,11.47
2019-05-01T08:18:59.160Z,13.61
2019-05-01T08:21:47.627Z,12.23
2019-05-01T08:24:17.905Z,14.18
2019-05-01T08:26:46.044Z,13.63
2019-05-01T08:29:41.974Z,13.48
2019-05-01T08:32:33.661Z,13.96
2019-05-01T08:35:05.178Z,13.34
2019-05-01T08:37:33.459Z,14.07
2019-05-01T08:40:01.693Z,14.44
2019-05-01T08:42:29.905Z,12.81
2019-05-01T08:45:23.321Z,14.89
2019-05-01T08:48:01.487Z,14.42
2019-05-01T08:50:29.901Z,13.31
2019-05-01T08:52:58.194Z,12.84
2019-05-01T08:55:26.433Z,16.19
2019-05-01T08:57:54.631Z,16.37
2019-05-01T09:00:22.909Z,15.84
2019-05-01T09:02:51.111Z,14.43
2019-05-01T09:05:28.163Z,15.74
2019-05-01T09:07:51.297Z,15.27
2019-05-01T09:10:21.604Z,14.40
2019-05-01T09:12:52.095Z,14.86
2019-05-01T09:15:19.712Z,17.77
2019-05-01T09:17:47.906Z,12.72
2019-05-01T09:20:16.817Z,15.13
2019-05-01T09:22:45.109Z,14.20
2019-05-01T09:25:15.380Z,13.00
2019-05-01T09:28:03.992Z,15.22
2019-05-01T09:30:42.754Z,15.43
2019-05-01T09:33:11.049Z,15.33
2019-05-01T09:35:40.197Z,19.81
2019-05-01T09:38:08.364Z,19.28
2019-05-01T09:40:36.504Z,19.31
2019-05-01T09:43:04.710Z,16.34
2019-05-01T09:45:33.136Z,15.41
2019-05-01T09:48:01.320Z,14.76
2019-05-01T09:50:31.592Z,14.92
2019-05-01T09:53:18.968Z,14.88
2019-05-01T09:55:53.575Z,18.53
2019-05-01T09:58:21.793Z,18.53
2019-05-01T10:03:24.995Z,15.63
2019-05-01T10:05:53.289Z,17.76
2019-05-01T10:08:24.312Z,18.48
2019-05-01T10:10:52.924Z,16.72
2019-05-01T10:13:22.445Z,17.90
2019-05-01T10:15:50.144Z,18.61
2019-05-01T10:18:19.992Z,16.88
2019-05-01T10:20:48.200Z,16.03
2019-05-01T10:23:16.502Z,16.61
2019-05-01T10:25:49.829Z,17.89
2019-05-01T10:28:27.067Z,19.42
2019-05-01T10:31:14.222Z,16.39
2019-05-01T10:33:44.813Z,19.34
2019-05-01T10:36:35.287Z,20.58
2019-05-01T10:39:05.125Z,18.83
2019-05-01T10:41:33.427Z,18.47
2019-05-01T10:44:01.840Z,21.47
2019-05-01T10:46:30.184Z,20.71
2019-05-01T10:48:58.476Z,19.56
2019-05-01T10:51:26.746Z,18.74
2019-05-01T10:53:54.913Z,20.99
2019-05-01T10:56:23.632Z,21.67
2019-05-01T10:58:51.930Z,21.26
2019-05-01T11:01:39.840Z,23.07
2019-05-01T11:04:08.077Z,21.23
2019-05-01T11:06:36.375Z,20.63
2019-05-01T11:09:05.117Z,20.45
2019-05-01T11:11:33.466Z,20.95
2019-05-01T11:14:01.634Z,21.89
2019-05-01T11:16:29.983Z,22.20
2019-05-01T11:18:58.387Z,20.66
2019-05-01T11:21:26.825Z,18.58
2019-05-01T11:23:55.105Z,20.90
2019-05-01T11:26:23.424Z,24.31
2019-05-01T11:28:51.756Z,23.10
2019-05-01T11:31:24.348Z,24.35
2019-05-01T11:34:20.721Z,22.56
2019-05-01T11:37:14.359Z,25.98
2019-05-01T11:39:56.551Z,23.53
2019-05-01T11:42:24.763Z,22.68
2019-05-01T11:44:53.067Z,23.54
2019-05-01T11:47:21.411Z,22.34
2019-05-01T11:49:49.982Z,18.69
2019-05-01T11:52:18.159Z,21.92
2019-05-01T11:54:46.529Z,19.28
2019-05-01T11:57:14.893Z,19.73
2019-05-01T11:59:43.132Z,18.64
2019-05-01T12:02:11.314Z,22.76
2019-05-01T12:04:39.523Z,24.19
2019-05-01T12:07:07.699Z,22.29
2019-05-01T12:09:35.900Z,17.80
2019-05-01T12:12:07.571Z,18.63
2019-05-01T12:14:35.916Z,25.43
2019-05-01T12:17:29.095Z,21.04
2019-05-01T12:19:57.443Z,21.15
2019-05-01T12:22:25.632Z,21.96
2019-05-01T12:24:53.793Z,24.35
2019-05-01T12:27:22.079Z,25.57
2019-05-01T12:29:50.306Z,24.38
2019-05-01T12:32:18.459Z,22.54
2019-05-01T12:34:46.655Z,22.13
2019-05-01T12:37:18.309Z,21.32
2019-05-01T12:39:46.865Z,18.65
2019-05-01T12:42:15.830Z,21.86
2019-05-01T12:44:44.175Z,22.44
2019-05-01T12:47:20.629Z,23.73
2019-05-01T12:49:50.121Z,22.72
2019-05-01T12:52:26.809Z,24.09
2019-05-01T12:55:03.636Z,20.86
2019-05-01T12:57:31.820Z,19.20
2019-05-01T13:00:08.504Z,26.53
2019-05-01T13:02:30.145Z,27.30
2019-05-01T13:04:58.461Z,24.96
2019-05-01T13:07:26.754Z,23.54
2019-05-01T13:09:55.188Z,22.49
2019-05-01T13:12:23.451Z,18.77
2019-05-01T13:14:51.590Z,24.74
2019-05-01T13:17:19.778Z,24.68
2019-05-01T13:19:47.957Z,25.82
2019-05-01T13:22:16.219Z,21.59
2019-05-01T13:24:50.558Z,23.69
2019-05-01T13:27:24.732Z,23.67
2019-05-01T13:30:01.758Z,26.09
2019-05-01T13:32:42.180Z,25.72
2019-05-01T13:35:10.599Z,27.49
2019-05-01T13:37:38.860Z,29.09
2019-05-01T13:40:07.863Z,27.80
2019-05-01T13:42:36.116Z,24.88
2019-05-01T13:45:05.270Z,27.00
2019-05-01T13:47:33.487Z,23.51
2019-05-01T13:50:01.894Z,24.99
2019-05-01T13:52:30.115Z,20.88
2019-05-01T13:54:58.602Z,21.06
2019-05-01T13:57:26.885Z,20.76
2019-05-01T13:59:55.040Z,24.76
2019-05-01T14:02:23.360Z,20.35
2019-05-01T14:04:51.497Z,23.13
2019-05-01T14:07:19.978Z,23.01
2019-05-01T14:09:48.255Z,23.13
2019-05-01T14:12:16.436Z,21.19
2019-05-01T14:14:44.700Z,26.15
2019-05-01T14:17:13.044Z,26.15
2019-05-01T14:19:43.514Z,25.19
2019-05-01T14:22:33.976Z,26.47
2019-05-01T14:25:04.046Z,23.98
2019-05-01T14:27:32.224Z,24.35
2019-05-01T14:30:00.544Z,27.05
2019-05-01T14:32:28.750Z,25.66
2019-05-01T14:34:57.048Z,23.60
2019-05-01T14:37:29.788Z,22.24
2019-05-01T14:39:55.097Z,28.13
2019-05-01T14:42:23.271Z,26.50
2019-05-01T14:44:51.712Z,26.42
2019-05-01T14:47:19.907Z,29.58
2019-05-01T14:49:48.098Z,22.76
2019-05-01T14:52:16.372Z,22.56
2019-05-01T14:54:44.758Z,21.04
2019-05-01T14:57:12.968Z,22.24
2019-05-01T14:59:41.177Z,20.32
2019-05-01T15:02:09.340Z,26.86
2019-05-01T15:04:37.591Z,27.03
2019-05-01T15:07:05.832Z,27.57
2019-05-01T15:09:34.111Z,27.34
2019-05-01T15:12:04.086Z,22.42
2019-05-01T15:14:54.270Z,28.15
2019-05-01T15:17:25.632Z,23.70
2019-05-01T15:20:01.202Z,21.28
2019-05-01T15:22:29.436Z,23.24
2019-05-01T15:24:57.760Z,22.23
2019-05-01T15:27:26.012Z,18.45
2019-05-01T15:29:54.262Z,17.91
2019-05-01T15:32:22.481Z,17.63
2019-05-01T15:34:50.720Z,19.74
2019-05-01T15:37:18.938Z,24.19
2019-05-01T15:39:55.686Z,22.43
2019-05-01T15:42:42.881Z,21.43
2019-05-01T15:45:11.226Z,21.65
2019-05-01T15:47:39.413Z,22.75
2019-05-01T15:50:08.315Z,23.54
2019-05-01T15:52:36.776Z,22.77
2019-05-01T15:55:05.744Z,21.80
2019-05-01T15:57:34.337Z,22.08
2019-05-01T16:00:02.493Z,19.54
2019-05-01T16:02:31.076Z,22.55
2019-05-01T16:04:59.340Z,25.27
2019-05-01T16:07:27.501Z,23.72
2019-05-01T16:09:55.699Z,26.59
2019-05-01T16:12:32.309Z,26.94
2019-05-01T16:15:00.478Z,24.22
2019-05-01T16:17:28.670Z,22.67
2019-05-01T16:19:56.887Z,20.58
2019-05-01T16:22:25.208Z,21.27
2019-05-01T16:24:53.545Z,22.98
2019-05-01T16:27:21.704Z,24.90
2019-05-01T16:29:49.974Z,25.35
2019-05-01T16:32:18.146Z,22.75
2019-05-01T16:34:46.577Z,21.03
2019-05-01T16:37:14.786Z,19.00
2019-05-01T16:39:53.462Z,21.17
2019-05-01T16:42:34.581Z,20.63
2019-05-01T16:45:04.942Z,21.99
2019-05-01T16:47:33.571Z,22.54
2019-05-01T16:50:01.826Z,21.13
2019-05-01T16:52:32.035Z,20.71
2019-05-01T16:55:00.261Z,23.15
2019-05-01T16:57:28.533Z,23.63
2019-05-01T16:59:56.700Z,22.60
2019-05-01T17:02:42.494Z,22.00
2019-05-01T17:05:31.174Z,21.76
2019-05-01T17:08:35.568Z,19.30
2019-05-01T17:10:54.006Z,17.03
2019-05-01T17:13:22.280Z,19.72
2019-05-01T17:15:50.858Z,19.88
2019-05-01T17:18:19.830Z,20.40
2019-05-01T17:20:48.054Z,18.28
2019-05-01T17:23:16.253Z,18.41
2019-05-01T17:25:44.552Z,21.42
2019-05-01T17:28:12.783Z,18.37
2019-05-01T17:30:43.450Z,17.84
2019-05-01T17:33:20.066Z,18.83
2019-05-01T17:35:43.140Z,16.98
2019-05-01T17:38:11.546Z,17.69
2019-05-01T17:40:40.077Z,18.91
2019-05-01T17:43:13.404Z,20.18
2019-05-01T17:45:37.275Z,20.16
2019-05-01T17:48:05.554Z,20.95
2019-05-01T17:50:33.739Z,17.62
2019-05-01T17:53:01.915Z,16.31
2019-05-01T17:55:30.191Z,19.21
2019-05-01T17:57:58.403Z,19.91
2019-05-01T18:00:41.370Z,18.26
2019-05-01T18:03:31.616Z,19.93
2019-05-01T18:06:13.278Z,20.30
2019-05-01T18:08:41.509Z,20.53
2019-05-01T18:11:14.224Z,20.61
2019-05-01T18:13:38.749Z,20.53
2019-05-01T18:16:06.975Z,20.41
2019-05-01T18:18:35.167Z,19.97
2019-05-01T18:21:03.387Z,19.98
2019-05-01T18:23:53.033Z,19.90
2019-05-01T18:26:38.771Z,19.85
2019-05-01T18:29:14.302Z,19.69
2019-05-01T18:31:42.728Z,19.32
2019-05-01T18:34:11.026Z,19.30
2019-05-01T18:36:44.552Z,18.76
2019-05-01T18:39:35.776Z,18.95
2019-05-01T18:42:06.186Z,18.77
2019-05-01T18:44:34.372Z,18.57
2019-05-01T18:47:02.722Z,18.12
2019-05-01T18:49:30.952Z,18.32
2019-05-01T18:51:59.192Z,18.08
2019-05-01T18:54:30.332Z,18.05
2019-05-01T18:56:57.429Z,17.90
2019-05-01T18:59:25.922Z,17.65
2019-05-01T19:01:54.874Z,17.22
2019-05-01T19:04:24.535Z,16.75
2019-05-01T19:06:52.848Z,15.81
2019-05-01T19:09:29.665Z,15.91
2019-05-01T19:11:50.239Z,15.50
2019-05-01T19:14:18.515Z,15.29
2019-05-01T19:16:47.127Z,14.47
2019-05-01T19:19:15.642Z,14.88
2019-05-01T19:21:46.615Z,14.88
2019-05-01T19:24:14.315Z,14.93
2019-05-01T19:26:44.019Z,15.28
2019-05-01T19:29:12.267Z,14.19
2019-05-01T19:31:40.634Z,13.45
2019-05-01T19:34:09.038Z,13.45
2019-05-01T19:36:40.403Z,14.12
2019-05-01T19:39:11.675Z,14.87
2019-05-01T19:41:38.112Z,13.75
2019-05-01T19:44:06.402Z,14.30
2019-05-01T19:46:34.637Z,14.30
2019-05-01T19:49:02.786Z,13.96
2019-05-01T19:51:31.162Z,13.96
2019-05-01T19:53:59.415Z,14.21
2019-05-01T19:56:27.696Z,14.23
2019-05-01T19:58:55.958Z,13.99
2019-05-01T20:01:24.139Z,13.44
2019-05-01T20:03:52.378Z,13.69
2019-05-01T20:06:20.553Z,13.89
2019-05-01T20:08:48.785Z,13.84
2019-05-01T20:11:17.062Z,13.84
2019-05-01T20:13:45.361Z,14.03
2019-05-01T20:16:14.092Z,14.00
2019-05-01T20:18:42.349Z,13.68
2019-05-01T20:21:10.615Z,13.32
2019-05-01T20:23:38.783Z,13.71
2019-05-01T20:26:07.029Z,13.72
2019-05-01T20:28:37.220Z,13.28
2019-05-01T20:31:05.231Z,13.41
2019-05-01T20:33:38.651Z,12.89
2019-05-01T20:36:05.364Z,12.85
2019-05-01T20:38:33.341Z,12.51
2019-05-01T20:41:01.513Z,12.98
2019-05-01T20:43:29.674Z,13.01
2019-05-01T20:45:57.957Z,12.13
2019-05-01T20:48:26.208Z,12.61
2019-05-01T20:50:54.453Z,11.94
2019-05-01T20:53:22.751Z,11.97
2019-05-01T20:56:11.682Z,12.33
2019-05-01T20:58:39.822Z,12.61
2019-05-01T21:01:08.485Z,12.39
2019-05-01T21:03:38.413Z,12.44
2019-05-01T21:06:15.768Z,12.27
2019-05-01T21:08:48.218Z,12.30
2019-05-01T21:11:21.185Z,12.29
2019-05-01T21:13:49.381Z,12.17
2019-05-01T21:16:17.611Z,12.19
2019-05-01T21:18:45.758Z,12.09
2019-05-01T21:21:14.236Z,12.07
2019-05-01T21:23:43.461Z,11.95
2019-05-01T21:26:13.299Z,11.83
2019-05-01T21:28:42.978Z,11.69
2019-05-01T21:31:13.647Z,11.67
2019-05-01T21:33:46.401Z,11.56
2019-05-01T21:36:11.348Z,11.54
2019-05-01T21:38:39.449Z,11.45
2019-05-01T21:41:07.639Z,11.35
2019-05-01T21:43:37.136Z,11.16
2019-05-01T21:46:05.443Z,11.07
2019-05-01T21:48:33.640Z,10.98
2019-05-01T21:51:03.345Z,11.11
2019-05-01T21:53:32.813Z,11.07
2019-05-01T21:56:02.146Z,11.07
2019-05-01T21:58:33.385Z,11.03
2019-05-01T22:01:01.718Z,10.96
2019-05-01T22:03:29.880Z,10.82
2019-05-01T22:05:58.040Z,10.90
2019-05-01T22:08:27.032Z,10.48
2019-05-01T22:10:57.639Z,10.57
2019-05-01T22:13:25.587Z,10.41
2019-05-01T22:15:58.535Z,10.27
2019-05-01T22:18:51.180Z,9.98
2019-05-01T22:21:41.458Z,9.79
2019-05-01T22:24:17.714Z,9.75
2019-05-01T22:26:53.480Z,9.89
2019-05-01T22:29:27.229Z,9.46
2019-05-01T22:32:12.258Z,9.67
2019-05-01T22:34:59.888Z,9.76
2019-05-01T22:37:28.114Z,9.94
2019-05-01T22:40:06.139Z,9.98
2019-05-01T22:42:34.314Z,9.91
2019-05-01T22:45:02.484Z,9.78
2019-05-01T22:47:30.919Z,9.42
2019-05-01T22:49:59.121Z,9.13
2019-05-01T22:52:28.524Z,9.16
2019-05-01T22:54:56.740Z,8.83
2019-05-01T22:57:24.870Z,9.23
2019-05-01T22:59:53.045Z,9.38
2019-05-01T23:02:28.333Z,9.44
2019-05-01T23:04:57.499Z,9.46
2019-05-01T23:07:25.828Z,9.39
2019-05-01T23:09:53.982Z,9.40
2019-05-01T23:12:22.112Z,9.33
2019-05-01T23:14:50.351Z,9.29
2019-05-01T23:17:24.585Z,9.27
2019-05-01T23:19:52.758Z,9.01
2019-05-01T23:22:22.738Z,9.10
2019-05-01T23:24:50.931Z,9.09
2019-05-01T23:27:19.077Z,9.04
2019-05-01T23:29:47.382Z,9.00
2019-05-01T23:32:15.596Z,8.94
2019-05-01T23:34:43.852Z,8.86
2019-05-01T23:37:12.118Z,8.81
2019-05-01T23:39:42.135Z,8.82
2019-05-01T23:42:10.184Z,8.75
2019-05-01T23:44:42.853Z,8.72
2019-05-01T23:47:08.228Z,8.61
2019-05-01T23:49:36.547Z,8.55
2019-05-01T23:52:05.227Z,8.54
2019-05-01T23:54:33.507Z,8.47
2019-05-01T23:57:01.663Z,8.31
2019-05-01T23:59:29.837Z,8.44
